createdAt,value
2023-01-09T00:02:24.030Z,2.08
2023-01-09T00:04:51.934Z,2.29
2023-01-09T00:07:21.263Z,2.37
2023-01-09T00:09:49.202Z,2.34
2023-01-09T00:12:17.135Z,2.39
2023-01-09T00:14:45.124Z,2.34
2023-01-09T00:17:13.046Z,2.29
2023-01-09T00:19:41.164Z,2.21
2023-01-09T00:22:09.665Z,2.13
2023-01-09T00:24:39.026Z,2.22
2023-01-09T00:27:07.194Z,2.23
2023-01-09T00:29:35.213Z,2.31
2023-01-09T00:32:03.457Z,2.20
2023-01-09T00:34:31.440Z,2.16
2023-01-09T00:36:59.319Z,2.21
2023-01-09T00:39:27.170Z,2.15
2023-01-09T00:41:58.708Z,2.18
2023-01-09T00:44:31.273Z,2.21
2023-01-09T00:47:02.769Z,2.14
2023-01-09T00:49:35.457Z,2.16
2023-01-09T00:52:04.306Z,2.14
2023-01-09T00:54:33.630Z,2.08
2023-01-09T00:57:03.032Z,2.05
2023-01-09T00:59:31.036Z,1.90
2023-01-09T01:01:59.181Z,1.95
2023-01-09T01:04:44.980Z,1.90
2023-01-09T01:07:30.495Z,1.94
2023-01-09T01:09:58.483Z,1.89
2023-01-09T01:12:27.928Z,1.87
2023-01-09T01:14:55.847Z,1.77
2023-01-09T01:17:23.865Z,1.69
2023-01-09T01:19:51.722Z,1.67
2023-01-09T01:22:19.634Z,1.70
2023-01-09T01:24:47.759Z,1.58
2023-01-09T01:27:15.792Z,1.56
2023-01-09T01:29:45.260Z,1.51
2023-01-09T01:32:13.333Z,1.54
2023-01-09T01:34:41.231Z,1.54
2023-01-09T01:37:09.194Z,1.48
2023-01-09T01:39:37.351Z,1.35
2023-01-09T01:42:05.602Z,1.42
2023-01-09T01:45:01.172Z,1.39
2023-01-09T01:47:36.805Z,1.33
2023-01-09T01:50:10.818Z,1.35
2023-01-09T01:52:39.585Z,1.36
2023-01-09T01:55:10.391Z,1.37
2023-01-09T01:57:41.553Z,1.35
2023-01-09T02:00:13.265Z,1.45
2023-01-09T02:02:43.530Z,1.41
2023-01-09T02:05:11.886Z,1.40
2023-01-09T02:07:39.839Z,1.51
2023-01-09T02:10:09.503Z,1.51
2023-01-09T02:12:38.389Z,1.57
2023-01-09T02:15:11.101Z,1.56
2023-01-09T02:18:04.452Z,1.49
2023-01-09T02:20:43.433Z,1.45
2023-01-09T02:23:57.792Z,1.43
2023-01-09T02:26:47.396Z,1.18
2023-01-09T02:30:08.701Z,1.30
2023-01-09T02:32:46.539Z,1.32
2023-01-09T02:35:36.926Z,1.32
2023-01-09T02:38:14.475Z,1.31
2023-01-09T02:40:48.254Z,1.36
2023-01-09T02:43:17.075Z,1.29
2023-01-09T02:45:45.035Z,1.44
2023-01-09T02:48:14.645Z,1.34
2023-01-09T02:50:48.962Z,1.40
2023-01-09T02:54:02.494Z,1.28
2023-01-09T02:57:02.788Z,1.19
2023-01-09T02:59:37.223Z,1.23
2023-01-09T03:02:35.296Z,1.22
2023-01-09T03:05:12.532Z,1.23
2023-01-09T03:07:45.026Z,1.14
2023-01-09T03:10:17.348Z,0.98
2023-01-09T03:12:48.813Z,1.05
2023-01-09T03:15:19.415Z,0.99
2023-01-09T03:17:50.533Z,0.93
2023-01-09T03:20:24.696Z,0.97
2023-01-09T03:22:57.879Z,1.05
2023-01-09T03:25:27.135Z,1.17
2023-01-09T03:27:58.528Z,1.23
2023-01-09T03:30:28.714Z,1.26
2023-01-09T03:32:56.884Z,1.32
2023-01-09T03:35:26.481Z,1.23
2023-01-09T03:37:54.400Z,1.24
2023-01-09T03:40:23.232Z,1.20
2023-01-09T03:42:51.158Z,1.09
2023-01-09T03:45:19.038Z,1.05
2023-01-09T03:47:46.990Z,1.08
2023-01-09T03:50:14.995Z,0.93
2023-01-09T03:52:44.293Z,1.00
2023-01-09T03:55:14.243Z,0.90
2023-01-09T03:57:43.337Z,0.86
2023-01-09T04:00:12.512Z,0.87
2023-01-09T04:02:40.448Z,0.84
2023-01-09T04:05:09.533Z,0.73
2023-01-09T04:07:37.504Z,0.75
2023-01-09T04:10:07.556Z,0.68
2023-01-09T04:12:35.441Z,0.48
2023-01-09T04:15:03.368Z,0.47
2023-01-09T04:17:31.311Z,0.46
2023-01-09T04:19:59.492Z,0.35
2023-01-09T04:22:27.495Z,0.37
2023-01-09T04:24:55.412Z,0.39
2023-01-09T04:27:24.716Z,0.32
2023-01-09T04:29:52.664Z,0.24
2023-01-09T04:32:20.638Z,0.29
2023-01-09T04:34:48.690Z,0.31
2023-01-09T04:37:16.612Z,0.36
2023-01-09T04:39:44.545Z,0.38
2023-01-09T04:42:12.877Z,0.39
2023-01-09T04:44:42.195Z,0.46
2023-01-09T04:47:10.480Z,0.55
2023-01-09T04:49:38.366Z,0.58
2023-01-09T04:52:07.074Z,0.50
2023-01-09T04:54:35.209Z,0.46
2023-01-09T04:57:03.159Z,0.43
2023-01-09T04:59:31.018Z,0.45
2023-01-09T05:02:00.615Z,0.38
2023-01-09T05:04:28.758Z,0.25
2023-01-09T05:06:56.773Z,0.42
2023-01-09T05:09:24.741Z,0.36
2023-01-09T05:11:53.081Z,0.34
2023-01-09T05:14:21.455Z,0.29
2023-01-09T05:16:49.450Z,0.41
2023-01-09T05:19:18.888Z,0.37
2023-01-09T05:21:46.825Z,0.38
2023-01-09T05:24:14.721Z,0.23
2023-01-09T05:26:42.612Z,0.39
2023-01-09T05:29:11.248Z,0.41
2023-01-09T05:31:39.114Z,0.34
2023-01-09T05:34:07.162Z,0.38
2023-01-09T05:36:36.456Z,0.37
2023-01-09T05:39:05.662Z,0.44
2023-01-09T05:41:33.641Z,0.42
2023-01-09T05:44:01.593Z,0.45
2023-01-09T05:46:29.721Z,0.54
2023-01-09T05:48:57.772Z,0.55
2023-01-09T05:51:25.840Z,0.52
2023-01-09T05:53:55.138Z,0.56
2023-01-09T05:56:23.024Z,0.51
2023-01-09T05:58:50.989Z,0.61
2023-01-09T06:01:18.944Z,0.70
2023-01-09T06:03:46.995Z,0.69
2023-01-09T06:06:15.021Z,0.73
2023-01-09T06:08:42.924Z,0.80
2023-01-09T06:11:12.267Z,0.73
2023-01-09T06:13:40.258Z,0.77
2023-01-09T06:16:09.292Z,0.64
2023-01-09T06:18:37.258Z,0.58
2023-01-09T06:21:05.557Z,0.55
2023-01-09T06:23:33.536Z,0.54
2023-01-09T06:26:01.464Z,0.44
2023-01-09T06:28:30.814Z,0.67
2023-01-09T06:30:58.809Z,0.49
2023-01-09T06:33:26.723Z,0.68
2023-01-09T06:35:54.717Z,0.69
2023-01-09T06:38:22.696Z,0.79
2023-01-09T06:40:50.960Z,0.79
2023-01-09T06:43:18.897Z,0.88
2023-01-09T06:45:48.319Z,0.91
2023-01-09T06:48:16.348Z,0.99
2023-01-09T06:50:45.810Z,1.03
2023-01-09T06:53:13.748Z,1.11
2023-01-09T06:55:41.693Z,1.26
2023-01-09T06:58:09.655Z,1.20
2023-01-09T07:00:38.025Z,1.33
2023-01-09T07:03:07.392Z,1.38
2023-01-09T07:05:41.281Z,1.44
2023-01-09T07:08:09.758Z,1.49
2023-01-09T07:10:37.726Z,1.52
2023-01-09T07:13:05.808Z,1.44
2023-01-09T07:15:33.989Z,1.48
2023-01-09T07:18:01.919Z,1.55
2023-01-09T07:20:31.460Z,1.54
2023-01-09T07:22:59.719Z,1.52
2023-01-09T07:25:27.678Z,1.62
2023-01-09T07:27:55.677Z,1.67
2023-01-09T07:30:23.949Z,1.83
2023-01-09T07:32:51.847Z,1.90
2023-01-09T07:35:19.795Z,2.11
2023-01-09T07:37:49.163Z,2.19
2023-01-09T07:40:17.311Z,2.19
2023-01-09T07:42:45.273Z,2.29
2023-01-09T07:45:13.278Z,2.38
2023-01-09T07:47:41.839Z,2.36
2023-01-09T07:50:10.937Z,2.45
2023-01-09T07:52:39.053Z,2.59
2023-01-09T07:55:10.240Z,2.81
2023-01-09T07:57:38.257Z,3.01
2023-01-09T08:00:11.001Z,3.16
2023-01-09T08:02:38.953Z,3.39
2023-01-09T08:05:08.911Z,3.49
2023-01-09T08:07:37.079Z,3.63
2023-01-09T08:10:05.571Z,3.65
2023-01-09T08:12:34.992Z,3.79
2023-01-09T08:15:03.070Z,3.98
2023-01-09T08:17:30.986Z,4.13
2023-01-09T08:19:58.912Z,4.26
2023-01-09T08:22:26.935Z,4.28
2023-01-09T08:24:54.882Z,4.31
2023-01-09T08:27:22.914Z,4.32
2023-01-09T08:29:52.314Z,4.33
2023-01-09T08:32:20.252Z,4.27
2023-01-09T08:34:48.330Z,4.25
2023-01-09T08:37:16.512Z,4.37
2023-01-09T08:39:44.447Z,4.40
2023-01-09T08:42:29.637Z,4.38
2023-01-09T08:45:24.954Z,4.38
2023-01-09T08:47:52.928Z,4.24
2023-01-09T08:50:21.099Z,4.38
2023-01-09T08:52:49.102Z,4.31
2023-01-09T08:55:17.118Z,4.31
2023-01-09T08:57:49.529Z,4.45
2023-01-09T09:00:20.315Z,4.50
2023-01-09T09:02:52.239Z,4.65
2023-01-09T09:05:20.706Z,4.62
2023-01-09T09:07:49.925Z,4.83
2023-01-09T09:10:18.099Z,5.00
2023-01-09T09:12:46.251Z,5.10
2023-01-09T09:15:16.426Z,5.36
2023-01-09T09:17:45.921Z,5.82
2023-01-09T09:20:13.934Z,6.44
2023-01-09T09:22:41.898Z,7.03
2023-01-09T09:25:10.296Z,7.42
2023-01-09T09:27:38.329Z,8.06
2023-01-09T09:30:07.592Z,8.42
2023-01-09T09:32:36.027Z,8.48
2023-01-09T09:35:08.743Z,8.70
2023-01-09T09:37:37.424Z,8.76
2023-01-09T09:40:17.824Z,8.86
2023-01-09T09:43:22.986Z,9.12
2023-01-09T09:45:58.943Z,8.92
2023-01-09T09:48:37.486Z,8.97
2023-01-09T09:51:53.127Z,9.05
2023-01-09T09:54:25.204Z,9.17
2023-01-09T09:56:57.905Z,9.00
2023-01-09T09:59:28.766Z,9.73
2023-01-09T10:02:00.370Z,10.08
2023-01-09T10:04:32.242Z,10.19
2023-01-09T10:07:06.264Z,10.26
2023-01-09T10:09:45.933Z,10.19
2023-01-09T10:12:27.482Z,9.97
2023-01-09T10:14:56.337Z,10.14
2023-01-09T10:17:45.620Z,9.91
2023-01-09T10:20:43.307Z,10.05
2023-01-09T10:23:42.403Z,10.00
2023-01-09T10:26:17.011Z,9.82
2023-01-09T10:29:10.247Z,9.57
2023-01-09T10:31:50.216Z,9.59
2023-01-09T10:34:32.478Z,9.93
2023-01-09T10:37:09.852Z,10.33
2023-01-09T10:39:45.354Z,10.63
2023-01-09T10:42:23.057Z,10.96
2023-01-09T10:44:58.089Z,11.05
2023-01-09T10:47:31.552Z,11.28
2023-01-09T10:50:00.849Z,11.36
2023-01-09T10:52:36.610Z,11.58
2023-01-09T10:55:19.350Z,11.54
2023-01-09T10:57:52.019Z,11.85
2023-01-09T11:00:23.884Z,11.76
2023-01-09T11:02:53.504Z,11.43
2023-01-09T11:05:23.399Z,11.48
2023-01-09T11:07:56.659Z,11.32
2023-01-09T11:10:46.749Z,11.55
2023-01-09T11:13:19.040Z,11.82
2023-01-09T11:15:47.109Z,11.56
2023-01-09T11:18:24.528Z,11.68
2023-01-09T11:20:53.374Z,11.70
2023-01-09T11:23:27.056Z,11.26
2023-01-09T11:25:59.432Z,10.73
2023-01-09T11:28:28.258Z,10.41
2023-01-09T11:30:59.841Z,9.86
2023-01-09T11:33:29.752Z,9.98
2023-01-09T11:36:08.077Z,9.84
2023-01-09T11:38:49.390Z,9.50
2023-01-09T11:41:22.476Z,9.31
2023-01-09T11:43:52.629Z,9.32
2023-01-09T11:46:39.648Z,9.07
2023-01-09T11:49:22.940Z,8.96
2023-01-09T11:52:13.093Z,8.98
2023-01-09T11:54:46.099Z,9.18
2023-01-09T11:57:15.556Z,9.22
2023-01-09T11:59:43.528Z,9.30
2023-01-09T12:02:42.508Z,9.41
2023-01-09T12:05:25.410Z,9.76
2023-01-09T12:08:14.275Z,9.73
2023-01-09T12:11:01.364Z,9.53
2023-01-09T12:13:50.086Z,9.48
2023-01-09T12:16:28.072Z,9.30
2023-01-09T12:19:12.172Z,9.31
2023-01-09T12:21:47.649Z,9.51
2023-01-09T12:24:54.572Z,10.27
2023-01-09T12:27:35.037Z,10.99
2023-01-09T12:30:20.835Z,11.73
2023-01-09T12:33:03.223Z,11.86
2023-01-09T12:35:37.013Z,12.01
2023-01-09T12:38:24.212Z,11.91
2023-01-09T12:41:23.129Z,11.50
2023-01-09T12:44:03.727Z,11.01
2023-01-09T12:46:41.134Z,11.17
2023-01-09T12:49:24.678Z,10.80
2023-01-09T12:52:02.089Z,10.52
2023-01-09T12:54:37.392Z,10.13
2023-01-09T12:57:11.358Z,9.89
2023-01-09T12:59:44.527Z,9.77
2023-01-09T13:02:25.163Z,9.75
2023-01-09T13:04:59.435Z,9.53
2023-01-09T13:07:31.507Z,9.39
2023-01-09T13:10:06.397Z,9.22
2023-01-09T13:12:39.664Z,9.08
2023-01-09T13:15:20.614Z,9.19
2023-01-09T13:17:54.071Z,8.99
2023-01-09T13:20:24.264Z,8.96
2023-01-09T13:22:54.041Z,8.96
2023-01-09T13:25:44.859Z,8.91
2023-01-09T13:28:20.102Z,8.67
2023-01-09T13:31:14.414Z,8.43
2023-01-09T13:33:47.701Z,8.29
2023-01-09T13:36:25.360Z,8.39
2023-01-09T13:38:54.965Z,8.45
2023-01-09T13:41:40.513Z,8.27
2023-01-09T13:44:24.071Z,8.24
2023-01-09T13:46:54.531Z,8.14
2023-01-09T13:50:06.509Z,8.14
2023-01-09T13:52:37.387Z,8.47
2023-01-09T13:55:36.310Z,8.58
2023-01-09T13:58:26.798Z,8.77
2023-01-09T14:00:57.659Z,8.85
2023-01-09T14:03:31.617Z,8.58
2023-01-09T14:06:19.080Z,8.41
2023-01-09T14:08:50.616Z,7.98
2023-01-09T14:11:21.785Z,7.71
2023-01-09T14:14:00.283Z,7.45
2023-01-09T14:16:28.729Z,7.42
2023-01-09T14:19:03.535Z,7.05
2023-01-09T14:21:48.124Z,7.04
2023-01-09T14:24:24.122Z,6.88
2023-01-09T14:26:56.644Z,6.74
2023-01-09T14:29:45.887Z,6.60
2023-01-09T14:32:39.336Z,6.47
2023-01-09T14:35:17.577Z,6.33
2023-01-09T14:37:57.600Z,6.19
2023-01-09T14:40:25.608Z,6.15
2023-01-09T14:42:55.515Z,5.96
2023-01-09T14:45:26.235Z,6.11
2023-01-09T14:47:59.316Z,6.03
2023-01-09T14:50:33.339Z,5.86
2023-01-09T14:53:08.033Z,5.95
2023-01-09T14:55:44.175Z,5.98
2023-01-09T14:58:13.940Z,5.97
2023-01-09T15:00:50.455Z,5.92
2023-01-09T15:03:18.842Z,5.91
2023-01-09T15:05:48.145Z,5.89
2023-01-09T15:08:21.717Z,5.92
2023-01-09T15:10:52.236Z,5.80
2023-01-09T15:13:28.183Z,5.76
2023-01-09T15:15:56.825Z,5.69
2023-01-09T15:18:28.677Z,5.57
2023-01-09T15:21:00.028Z,5.42
2023-01-09T15:23:30.987Z,5.37
2023-01-09T15:25:59.345Z,5.36
2023-01-09T15:28:32.175Z,5.24
2023-01-09T15:31:07.365Z,5.23
2023-01-09T15:33:36.393Z,5.04
2023-01-09T15:36:12.272Z,5.03
2023-01-09T15:38:43.617Z,5.03
2023-01-09T15:41:14.400Z,5.05
2023-01-09T15:43:45.263Z,4.91
2023-01-09T15:46:17.060Z,4.95
2023-01-09T15:48:45.278Z,4.85
2023-01-09T15:51:17.693Z,4.95
2023-01-09T15:53:49.597Z,4.86
2023-01-09T15:56:19.727Z,4.87
2023-01-09T15:58:49.054Z,4.77
2023-01-09T16:01:29.971Z,4.55
2023-01-09T16:04:05.785Z,4.57
2023-01-09T16:06:37.266Z,4.50
2023-01-09T16:09:17.388Z,4.50
2023-01-09T16:11:52.133Z,4.42
2023-01-09T16:14:23.291Z,4.31
2023-01-09T16:16:53.450Z,4.28
2023-01-09T16:19:32.804Z,4.23
2023-01-09T16:22:02.807Z,4.21
2023-01-09T16:24:41.360Z,4.18
2023-01-09T16:27:14.073Z,4.13
2023-01-09T16:29:49.733Z,4.06
2023-01-09T16:32:22.419Z,4.07
2023-01-09T16:34:54.379Z,4.11
2023-01-09T16:37:22.807Z,4.03
2023-01-09T16:40:29.992Z,4.13
2023-01-09T16:43:00.673Z,4.18
2023-01-09T16:45:30.384Z,4.00
2023-01-09T16:47:58.979Z,3.81
2023-01-09T16:50:27.433Z,3.85
2023-01-09T16:52:56.994Z,3.89
2023-01-09T16:55:24.996Z,3.93
2023-01-09T16:57:53.121Z,3.96
2023-01-09T17:00:23.023Z,4.01
2023-01-09T17:02:55.102Z,4.03
2023-01-09T17:05:23.261Z,3.97
2023-01-09T17:07:51.256Z,3.98
2023-01-09T17:10:23.067Z,3.94
2023-01-09T17:12:51.039Z,3.95
2023-01-09T17:15:19.165Z,3.94
2023-01-09T17:17:48.753Z,4.00
2023-01-09T17:20:18.968Z,3.97
2023-01-09T17:22:52.051Z,4.05
2023-01-09T17:25:38.633Z,3.89
2023-01-09T17:28:24.649Z,3.99
2023-01-09T17:30:52.668Z,3.98
2023-01-09T17:33:21.983Z,3.84
2023-01-09T17:35:52.342Z,3.94
2023-01-09T17:38:20.460Z,3.97
2023-01-09T17:40:48.422Z,3.84
2023-01-09T17:43:16.922Z,3.87
2023-01-09T17:45:45.388Z,3.76
2023-01-09T17:48:16.728Z,3.76
2023-01-09T17:50:47.161Z,3.71
2023-01-09T17:53:15.457Z,3.75
2023-01-09T17:55:43.830Z,3.82
2023-01-09T17:58:27.834Z,3.91
2023-01-09T18:00:56.444Z,3.75
2023-01-09T18:03:26.590Z,3.74
2023-01-09T18:05:57.869Z,3.88
2023-01-09T18:08:26.198Z,3.95
2023-01-09T18:10:54.840Z,3.91
2023-01-09T18:13:24.399Z,3.81
2023-01-09T18:15:52.656Z,3.80
2023-01-09T18:18:22.591Z,3.59
2023-01-09T18:20:51.492Z,3.68
2023-01-09T18:23:21.890Z,3.81
2023-01-09T18:25:50.531Z,3.78
2023-01-09T18:28:19.200Z,3.77
2023-01-09T18:30:49.219Z,3.89
2023-01-09T18:33:18.005Z,3.87
2023-01-09T18:35:46.852Z,4.00
2023-01-09T18:38:17.659Z,4.05
2023-01-09T18:40:47.697Z,3.85
2023-01-09T18:43:16.693Z,4.06
2023-01-09T18:45:45.587Z,4.11
2023-01-09T18:48:14.016Z,4.05
2023-01-09T18:50:44.707Z,3.87
2023-01-09T18:53:13.600Z,3.81
2023-01-09T18:55:42.372Z,3.72
2023-01-09T18:58:12.159Z,3.96
2023-01-09T19:00:41.445Z,3.97
2023-01-09T19:03:09.578Z,3.99
2023-01-09T19:05:37.595Z,3.93
2023-01-09T19:08:06.143Z,3.83
2023-01-09T19:10:34.948Z,3.69
2023-01-09T19:13:03.421Z,3.80
2023-01-09T19:15:34.834Z,3.71
2023-01-09T19:18:04.966Z,3.63
2023-01-09T19:20:33.190Z,3.74
2023-01-09T19:23:02.948Z,3.79
2023-01-09T19:25:33.261Z,3.58
2023-01-09T19:28:01.239Z,3.78
2023-01-09T19:30:29.556Z,3.59
2023-01-09T19:32:58.955Z,3.71
2023-01-09T19:35:27.118Z,3.74
2023-01-09T19:37:55.125Z,3.76
2023-01-09T19:40:23.154Z,3.81
2023-01-09T19:42:54.164Z,3.78
2023-01-09T19:45:22.394Z,3.82
2023-01-09T19:47:50.393Z,3.79
2023-01-09T19:50:20.089Z,3.88
2023-01-09T19:52:49.331Z,3.94
2023-01-09T19:55:17.439Z,3.96
2023-01-09T19:57:46.747Z,3.95
2023-01-09T20:00:15.884Z,3.94
2023-01-09T20:02:43.892Z,3.92
2023-01-09T20:05:11.886Z,3.82
2023-01-09T20:07:41.844Z,3.74
2023-01-09T20:10:10.879Z,3.68
2023-01-09T20:12:38.796Z,3.73
2023-01-09T20:15:10.015Z,3.57
2023-01-09T20:17:37.954Z,3.57
2023-01-09T20:20:07.454Z,3.62
2023-01-09T20:22:35.549Z,3.68
2023-01-09T20:25:05.003Z,3.73
2023-01-09T20:27:32.860Z,3.71
2023-01-09T20:30:02.047Z,3.79
2023-01-09T20:32:32.375Z,3.85
2023-01-09T20:35:02.489Z,3.75
2023-01-09T20:37:31.590Z,3.76
2023-01-09T20:39:59.706Z,3.67
2023-01-09T20:42:29.066Z,3.64
2023-01-09T20:44:57.206Z,3.62
2023-01-09T20:47:25.978Z,3.80
2023-01-09T20:49:53.936Z,3.81
2023-01-09T20:52:22.594Z,3.84
2023-01-09T20:54:50.513Z,3.83
2023-01-09T20:57:18.402Z,3.80
2023-01-09T20:59:47.936Z,3.87
2023-01-09T21:02:15.916Z,3.76
2023-01-09T21:04:43.898Z,3.96
2023-01-09T21:07:12.319Z,3.87
2023-01-09T21:09:40.284Z,3.89
2023-01-09T21:12:24.791Z,3.75
2023-01-09T21:14:54.611Z,3.74
2023-01-09T21:17:22.817Z,3.84
2023-01-09T21:19:51.305Z,3.74
2023-01-09T21:22:19.278Z,3.64
2023-01-09T21:24:50.098Z,3.63
2023-01-09T21:27:18.265Z,3.50
2023-01-09T21:29:46.691Z,3.39
2023-01-09T21:32:18.184Z,3.27
2023-01-09T21:34:46.189Z,3.26
2023-01-09T21:37:14.986Z,3.32
2023-01-09T21:39:43.249Z,3.40
2023-01-09T21:42:28.856Z,3.39
2023-01-09T21:45:14.036Z,3.54
2023-01-09T21:47:43.372Z,3.59
2023-01-09T21:50:12.151Z,3.68
2023-01-09T21:52:40.035Z,3.67
2023-01-09T21:55:09.001Z,3.78
2023-01-09T21:57:37.185Z,3.84
2023-01-09T22:00:05.685Z,3.78
2023-01-09T22:02:34.440Z,3.75
2023-01-09T22:05:03.793Z,3.70
2023-01-09T22:07:31.821Z,3.77
2023-01-09T22:09:59.844Z,3.65
2023-01-09T22:12:27.808Z,3.74
2023-01-09T22:14:55.850Z,3.77
2023-01-09T22:17:23.858Z,3.67
2023-01-09T22:19:51.821Z,3.66
2023-01-09T22:22:21.187Z,3.62
2023-01-09T22:24:50.012Z,3.67
2023-01-09T22:27:18.003Z,3.74
2023-01-09T22:29:45.953Z,3.78
2023-01-09T22:32:13.834Z,3.72
2023-01-09T22:34:41.745Z,3.65
2023-01-09T22:37:09.689Z,3.79
2023-01-09T22:39:39.006Z,3.71
2023-01-09T22:42:06.946Z,3.72
2023-01-09T22:44:34.952Z,3.81
2023-01-09T22:47:02.936Z,3.75
2023-01-09T22:49:41.132Z,3.82
2023-01-09T22:52:18.826Z,3.81
2023-01-09T22:54:48.746Z,3.72
2023-01-09T22:57:16.668Z,3.54
2023-01-09T22:59:44.669Z,3.36
2023-01-09T23:02:12.725Z,3.16
2023-01-09T23:04:40.631Z,3.17
2023-01-09T23:07:08.529Z,3.18
2023-01-09T23:09:36.421Z,3.20
2023-01-09T23:12:06.726Z,3.24
2023-01-09T23:14:36.957Z,3.17
2023-01-09T23:17:06.288Z,3.11
2023-01-09T23:19:34.809Z,2.85
2023-01-09T23:22:03.506Z,2.87
2023-01-09T23:24:32.630Z,2.94
2023-01-09T23:27:00.572Z,2.90
2023-01-09T23:29:30.019Z,2.82
2023-01-09T23:31:58.151Z,2.97
2023-01-09T23:34:27.661Z,3.05
2023-01-09T23:36:57.775Z,3.13
2023-01-09T23:39:25.761Z,3.08
2023-01-09T23:42:11.192Z,3.17
2023-01-09T23:44:40.525Z,3.14
2023-01-09T23:47:08.511Z,3.23
2023-01-09T23:49:36.503Z,3.17
2023-01-09T23:52:06.248Z,3.24
2023-01-09T23:54:34.169Z,3.18
2023-01-09T23:57:02.356Z,3.20
2023-01-09T23:59:30.511Z,3.21
